Time;durP1;ratioP1;P1;durP2;ratioP2;P2;SDS_P1;SDS_P2;PMS_P1;PMS_P2;Temp;Humidity;BMP_temperature;BMP_pressure;BME280_temperature;BME280_humidity;BME280_pressure;Samples;Min_cycle;Max_cycle;Signal;HPM_P1;HPM_P2
2020/12/08 00:01:52;;;;;;;22.52;10.02;;;0.40;99.90;;;;;;5119433;28;20024;-70
2020/12/08 00:04:20;;;;;;;25.15;12.82;;;0.40;99.90;;;;;;5119346;28;20026;-70
2020/12/08 00:06:47;;;;;;;25.13;12.00;;;0.40;99.90;;;;;;5119282;28;20411;-70
2020/12/08 00:09:14;;;;;;;19.98;9.82;;;0.40;99.90;;;;;;5097845;28;20143;-70
2020/12/08 00:11:42;;;;;;;23.90;10.05;;;0.50;99.90;;;;;;5099311;28;20043;-70
2020/12/08 00:14:10;;;;;;;20.15;10.43;;;0.50;99.90;;;;;;5098783;28;20107;-70
2020/12/08 00:16:40;;;;;;;20.55;9.50;;;0.50;99.90;;;;;;5099061;28;20016;-70
2020/12/08 00:19:10;;;;;;;20.60;9.98;;;0.50;99.90;;;;;;5098800;28;20417;-70
2020/12/08 00:21:40;;;;;;;17.52;8.85;;;0.50;99.90;;;;;;5098786;28;20073;-70
2020/12/08 00:24:08;;;;;;;17.52;9.10;;;0.60;99.90;;;;;;5099664;28;20349;-70
2020/12/08 00:26:42;;;;;;;19.50;9.70;;;0.60;99.90;;;;;;5098840;28;20467;-70
2020/12/08 00:29:12;;;;;;;17.98;9.07;;;0.60;99.90;;;;;;5097547;28;20032;-70
2020/12/08 00:31:40;;;;;;;17.75;9.20;;;0.60;99.90;;;;;;5098725;28;20020;-70
2020/12/08 00:34:07;;;;;;;17.00;8.95;;;0.60;99.90;;;;;;5098661;28;20069;-70
2020/12/08 00:36:35;;;;;;;18.15;9.38;;;0.60;99.90;;;;;;5098356;28;20027;-70
2020/12/08 00:39:02;;;;;;;20.17;10.10;;;0.60;99.90;;;;;;5098946;28;20016;-70
2020/12/08 00:41:30;;;;;;;20.13;9.40;;;0.70;99.90;;;;;;5097221;28;20499;-70
2020/12/08 00:43:58;;;;;;;18.23;8.75;;;0.70;99.90;;;;;;5098426;28;20032;-70
2020/12/08 00:46:26;;;;;;;15.57;7.95;;;0.70;99.90;;;;;;5098460;28;20020;-70
2020/12/08 00:48:54;;;;;;;18.27;9.27;;;0.80;99.90;;;;;;5099019;28;20401;-70
2020/12/08 00:51:22;;;;;;;19.50;10.65;;;0.80;99.90;;;;;;5098642;28;20436;-70
2020/12/08 00:53:50;;;;;;;17.42;9.73;;;0.80;99.90;;;;;;5098309;28;20332;-70
2020/12/08 00:56:18;;;;;;;18.92;9.15;;;0.80;99.90;;;;;;5098562;28;20023;-70
2020/12/08 00:58:45;;;;;;;20.10;9.07;;;0.80;99.90;;;;;;5098577;28;20403;-70
2020/12/08 01:01:12;;;;;;;18.13;9.20;;;0.90;99.90;;;;;;5097896;28;20052;-70
2020/12/08 01:03:40;;;;;;;18.23;9.90;;;0.90;99.90;;;;;;5098125;28;20457;-70
2020/12/08 01:06:11;;;;;;;16.80;9.18;;;1.00;99.90;;;;;;5098220;28;20028;-70
2020/12/08 01:08:38;;;;;;;19.38;9.68;;;1.00;99.90;;;;;;5107928;28;20047;-70
2020/12/08 01:11:06;;;;;;;15.98;9.13;;;1.00;99.90;;;;;;5118558;28;20051;-70
2020/12/08 01:13:37;;;;;;;20.67;10.70;;;1.10;99.90;;;;;;5118791;28;20088;-70
2020/12/08 01:16:06;;;;;;;17.42;9.68;;;1.10;99.90;;;;;;5118588;28;20468;-70
2020/12/08 01:18:33;;;;;;;17.08;9.70;;;1.10;99.90;;;;;;5117981;28;20047;-70
2020/12/08 01:21:01;;;;;;;20.77;9.15;;;1.10;99.90;;;;;;5099755;28;20323;-70
2020/12/08 01:23:29;;;;;;;16.25;8.50;;;1.10;99.90;;;;;;5118716;28;20015;-70
2020/12/08 01:25:57;;;;;;;17.27;9.27;;;1.10;99.90;;;;;;5099795;28;20469;-70
2020/12/08 01:28:24;;;;;;;15.73;8.70;;;1.20;99.90;;;;;;5118323;28;20031;-70
2020/12/08 01:30:52;;;;;;;17.23;9.55;;;1.20;99.90;;;;;;5117629;28;20074;-70
2020/12/08 01:33:20;;;;;;;17.58;9.32;;;1.20;99.90;;;;;;5117745;28;20027;-70
2020/12/08 01:35:47;;;;;;;18.60;9.95;;;1.20;99.90;;;;;;5099516;28;20021;-70
2020/12/08 01:38:15;;;;;;;20.90;9.77;;;1.20;99.90;;;;;;5100504;28;20011;-70
2020/12/08 01:40:42;;;;;;;20.70;9.75;;;1.20;99.90;;;;;;5118105;28;20024;-70
2020/12/08 01:43:10;;;;;;;18.58;10.07;;;1.20;99.90;;;;;;5117519;28;20434;-70
2020/12/08 01:45:38;;;;;;;19.50;10.30;;;1.20;99.90;;;;;;5118294;28;20416;-70
2020/12/08 01:48:06;;;;;;;18.67;8.93;;;1.20;99.90;;;;;;5118141;28;20024;-70
2020/12/08 01:50:34;;;;;;;19.17;10.07;;;1.20;99.90;;;;;;5117402;28;20301;-70
2020/12/08 01:53:02;;;;;;;20.73;10.38;;;1.20;99.90;;;;;;5117324;28;20028;-70
2020/12/08 01:55:35;;;;;;;18.00;9.27;;;1.30;99.90;;;;;;5117887;28;20015;-70
2020/12/08 01:58:13;;;;;;;21.77;9.50;;;1.30;99.90;;;;;;5118001;28;20023;-70
2020/12/08 02:00:41;;;;;;;18.75;10.40;;;1.30;99.90;;;;;;5117257;28;20412;-70
2020/12/08 02:03:09;;;;;;;19.10;10.35;;;1.30;99.90;;;;;;5117832;28;20400;-70
2020/12/08 02:05:36;;;;;;;17.02;9.00;;;1.30;99.90;;;;;;5098655;28;20016;-70
2020/12/08 02:08:04;;;;;;;17.42;9.10;;;1.20;99.90;;;;;;5117544;28;20044;-70
2020/12/08 02:10:32;;;;;;;16.23;9.27;;;1.20;99.90;;;;;;5117118;28;20102;-70
2020/12/08 02:12:59;;;;;;;17.08;9.05;;;1.20;99.90;;;;;;5099011;28;20373;-70
2020/12/08 02:15:31;;;;;;;18.75;9.68;;;1.20;99.90;;;;;;5098989;28;20016;-70
2020/12/08 02:17:59;;;;;;;19.63;9.80;;;1.10;99.90;;;;;;5117161;28;20019;-70
2020/12/08 02:20:27;;;;;;;19.63;9.55;;;1.10;99.90;;;;;;5117592;28;20020;-70
2020/12/08 02:22:58;;;;;;;19.13;10.10;;;1.20;99.90;;;;;;5116969;28;20043;-70
2020/12/08 02:25:26;;;;;;;21.25;9.88;;;1.20;99.90;;;;;;5117005;28;20034;-70
2020/12/08 02:27:54;;;;;;;19.67;9.80;;;1.20;99.90;;;;;;5117016;28;20486;-70
2020/12/08 02:30:21;;;;;;;19.88;10.38;;;1.20;99.90;;;;;;5098832;28;20472;-70
2020/12/08 02:32:48;;;;;;;20.00;10.23;;;1.30;99.90;;;;;;5116764;28;20415;-70
2020/12/08 02:35:16;;;;;;;19.48;10.15;;;1.30;99.90;;;;;;5098994;28;20024;-70
2020/12/08 02:37:44;;;;;;;21.27;11.32;;;1.30;99.90;;;;;;5116862;28;20024;-70
2020/12/08 02:40:11;;;;;;;21.48;11.20;;;1.30;99.90;;;;;;5117418;28;20023;-70
2020/12/08 02:42:39;;;;;;;22.35;10.02;;;1.40;99.90;;;;;;5117070;28;20020;-70
2020/12/08 02:45:07;;;;;;;19.17;9.95;;;1.40;99.90;;;;;;5116835;28;20023;-70
2020/12/08 02:47:35;;;;;;;17.17;9.13;;;1.40;99.90;;;;;;5117075;28;20420;-70
2020/12/08 02:50:04;;;;;;;18.95;9.85;;;1.50;99.90;;;;;;5117302;28;20058;-70
2020/12/08 02:52:35;;;;;;;19.88;9.90;;;1.40;99.90;;;;;;5116627;28;20027;-70
2020/12/08 02:55:03;;;;;;;18.60;9.88;;;1.50;99.90;;;;;;5116733;28;20106;-70
2020/12/08 02:57:30;;;;;;;18.48;9.82;;;1.50;99.90;;;;;;5116643;28;20016;-70
2020/12/08 02:59:58;;;;;;;20.83;11.35;;;1.50;99.90;;;;;;5117224;28;20064;-70
2020/12/08 03:02:26;;;;;;;22.42;10.20;;;1.50;99.90;;;;;;5098506;28;20300;-70
2020/12/08 03:04:54;;;;;;;22.65;9.70;;;1.50;99.90;;;;;;5116768;28;20427;-70
2020/12/08 03:07:22;;;;;;;21.17;10.45;;;1.50;99.90;;;;;;5116521;28;20035;-70
2020/12/08 03:09:50;;;;;;;22.02;9.98;;;1.50;99.90;;;;;;5116423;28;20122;-70
2020/12/08 03:12:17;;;;;;;21.55;10.65;;;1.60;99.90;;;;;;5098400;28;20115;-70
2020/12/08 03:14:45;;;;;;;19.20;10.10;;;1.60;99.90;;;;;;5116704;28;20145;-70
2020/12/08 03:17:12;;;;;;;19.65;9.60;;;1.50;99.90;;;;;;5120047;28;20018;-70
2020/12/08 03:19:40;;;;;;;19.50;9.45;;;1.50;99.90;;;;;;5120325;28;20024;-70
2020/12/08 03:22:08;;;;;;;18.33;9.70;;;1.50;99.90;;;;;;5120159;28;20019;-70
2020/12/08 03:24:36;;;;;;;21.17;10.05;;;1.50;99.90;;;;;;5120418;28;20016;-70
2020/12/08 03:27:03;;;;;;;17.20;9.65;;;1.50;99.90;;;;;;5120645;28;20020;-70
2020/12/08 03:29:31;;;;;;;19.65;11.13;;;1.50;99.90;;;;;;5120177;28;20327;-70
2020/12/08 03:31:59;;;;;;;18.45;9.75;;;1.60;99.90;;;;;;5119991;28;20031;-70
2020/12/08 03:34:27;;;;;;;21.67;9.82;;;1.60;99.90;;;;;;5120235;28;20065;-70
2020/12/08 03:36:54;;;;;;;15.10;8.73;;;1.60;99.90;;;;;;5101820;28;20026;-70
2020/12/08 03:39:21;;;;;;;22.33;10.65;;;1.60;99.90;;;;;;5120183;28;20023;-70
2020/12/08 03:41:49;;;;;;;20.08;10.27;;;1.60;99.90;;;;;;5120685;28;20031;-70
2020/12/08 03:44:17;;;;;;;20.67;10.18;;;1.60;99.90;;;;;;5119857;28;20026;-70
2020/12/08 03:46:44;;;;;;;19.30;9.25;;;1.60;99.90;;;;;;5101643;28;20072;-70
2020/12/08 03:49:12;;;;;;;22.65;11.60;;;1.60;99.90;;;;;;5101849;28;20426;-70
2020/12/08 03:51:40;;;;;;;20.60;10.07;;;1.60;99.90;;;;;;5119581;28;20019;-70
2020/12/08 03:54:07;;;;;;;17.10;9.55;;;1.70;99.90;;;;;;5120258;28;20106;-70
2020/12/08 03:56:35;;;;;;;16.67;9.05;;;1.60;99.90;;;;;;5120123;28;20027;-70
2020/12/08 03:59:03;;;;;;;19.55;9.77;;;1.70;99.90;;;;;;5119705;28;20019;-70
2020/12/08 04:01:31;;;;;;;16.30;9.20;;;1.70;99.90;;;;;;5101530;28;20024;-71
2020/12/08 04:03:58;;;;;;;21.10;10.43;;;1.70;99.90;;;;;;5120033;28;20023;-70
2020/12/08 04:06:27;;;;;;;18.15;9.70;;;1.70;99.90;;;;;;5119346;28;20019;-71
2020/12/08 04:08:54;;;;;;;21.17;10.40;;;1.70;99.90;;;;;;5119486;28;20043;-70
2020/12/08 04:11:23;;;;;;;20.88;10.98;;;1.70;99.90;;;;;;5119324;28;20126;-70
2020/12/08 04:13:50;;;;;;;19.63;9.73;;;1.70;99.90;;;;;;5119297;28;20383;-70
2020/12/08 04:16:17;;;;;;;20.00;10.18;;;1.70;99.90;;;;;;5119244;28;20015;-70
2020/12/08 04:18:45;;;;;;;20.92;9.60;;;1.70;99.90;;;;;;5119926;28;20399;-70
2020/12/08 04:21:19;;;;;;;20.13;9.77;;;1.70;99.90;;;;;;5119080;28;20425;-70
2020/12/08 04:23:47;;;;;;;21.90;10.60;;;1.80;99.90;;;;;;5119099;28;20016;-71
2020/12/08 04:26:15;;;;;;;18.65;9.27;;;1.80;99.90;;;;;;5119611;28;20073;-71
2020/12/08 04:28:47;;;;;;;16.55;9.70;;;1.80;99.90;;;;;;5118558;28;20293;-70
2020/12/08 04:31:16;;;;;;;19.27;10.20;;;1.80;99.90;;;;;;5119437;28;20399;-70
2020/12/08 04:33:44;;;;;;;18.55;9.00;;;1.80;99.90;;;;;;5119481;28;20024;-70
2020/12/08 04:36:21;;;;;;;18.35;9.40;;;1.80;99.90;;;;;;5119058;28;20415;-70
2020/12/08 04:38:49;;;;;;;17.98;8.63;;;1.80;99.90;;;;;;5119508;28;20354;-70
2020/12/08 04:41:22;;;;;;;15.85;8.30;;;1.80;99.90;;;;;;5100622;28;20109;-70
2020/12/08 04:43:51;;;;;;;18.23;9.45;;;1.80;99.90;;;;;;5119280;28;20399;-70
2020/12/08 04:46:20;;;;;;;17.58;8.90;;;1.80;99.90;;;;;;5118552;28;20027;-70
2020/12/08 04:48:49;;;;;;;20.27;9.65;;;1.70;99.90;;;;;;5119299;28;20015;-70
2020/12/08 04:51:17;;;;;;;17.83;8.32;;;1.70;99.90;;;;;;5118285;28;20039;-70
2020/12/08 04:53:47;;;;;;;16.85;9.10;;;1.80;99.90;;;;;;5118999;28;20420;-70
2020/12/08 04:56:16;;;;;;;16.80;7.57;;;1.70;99.90;;;;;;5118937;28;20468;-70
2020/12/08 04:58:44;;;;;;;18.98;9.75;;;1.80;99.90;;;;;;5101193;28;20019;-70
2020/12/08 05:01:25;;;;;;;18.75;9.18;;;1.70;99.90;;;;;;5100189;28;20034;-71
2020/12/08 05:04:03;;;;;;;18.88;9.18;;;1.80;99.90;;;;;;5118237;28;20031;-70
2020/12/08 05:06:31;;;;;;;19.98;9.68;;;1.80;99.90;;;;;;5118243;28;20097;-71
2020/12/08 05:09:08;;;;;;;18.77;8.18;;;1.80;99.90;;;;;;5118289;28;20074;-70
2020/12/08 05:11:36;;;;;;;17.48;9.45;;;1.80;99.90;;;;;;5118066;28;20024;-70
2020/12/08 05:14:06;;;;;;;17.73;9.30;;;1.80;99.90;;;;;;5118239;28;20091;-70
2020/12/08 05:16:34;;;;;;;17.55;9.15;;;1.70;99.90;;;;;;5118535;28;20019;-70
2020/12/08 05:19:09;;;;;;;16.92;8.80;;;1.70;99.90;;;;;;5118048;28;20023;-70
2020/12/08 05:21:58;;;;;;;16.63;9.38;;;1.70;99.90;;;;;;5117796;28;20016;-70
2020/12/08 05:24:29;;;;;;;18.67;8.50;;;1.70;99.90;;;;;;5099934;28;20032;-70
2020/12/08 05:27:05;;;;;;;19.98;9.93;;;1.70;99.90;;;;;;5118144;28;20411;-70
2020/12/08 05:29:33;;;;;;;20.98;10.25;;;1.70;99.90;;;;;;5118355;28;20032;-70
2020/12/08 05:32:16;;;;;;;22.58;10.93;;;1.70;99.90;;;;;;5118106;28;20024;-70
2020/12/08 05:34:48;;;;;;;17.75;9.45;;;1.70;99.90;;;;;;5118364;28;20016;-70
2020/12/08 05:37:20;;;;;;;20.50;10.02;;;1.70;99.90;;;;;;5117557;28;20041;-70
2020/12/08 05:39:48;;;;;;;19.48;10.48;;;1.70;99.90;;;;;;5098650;28;20491;-71
2020/12/08 05:42:20;;;;;;;20.77;10.90;;;1.70;99.90;;;;;;5118070;28;20027;-70
2020/12/08 05:44:52;;;;;;;22.50;10.45;;;1.80;99.90;;;;;;5118276;28;20022;-70
2020/12/08 05:47:21;;;;;;;18.50;10.00;;;1.80;99.90;;;;;;5117727;28;20023;-70
2020/12/08 05:50:03;;;;;;;21.42;11.30;;;1.80;99.90;;;;;;5118018;28;20399;-70
2020/12/08 05:52:39;;;;;;;21.23;10.52;;;1.80;99.90;;;;;;5099245;28;20028;-70
2020/12/08 05:55:12;;;;;;;21.90;10.82;;;1.80;99.90;;;;;;5117367;28;20020;-70
2020/12/08 05:57:44;;;;;;;23.67;11.80;;;1.90;99.90;;;;;;5099467;28;20034;-70
2020/12/08 06:00:26;;;;;;;23.13;10.63;;;1.80;99.90;;;;;;5117257;28;20423;-70
2020/12/08 06:03:12;;;;;;;24.08;12.65;;;1.80;99.90;;;;;;5099349;28;20118;-70
2020/12/08 06:05:40;;;;;;;21.25;10.73;;;1.90;99.90;;;;;;5117250;28;20073;-70
2020/12/08 06:08:19;;;;;;;24.58;11.48;;;1.90;99.90;;;;;;5116905;28;20043;-70
2020/12/08 06:10:52;;;;;;;21.85;10.70;;;1.90;99.90;;;;;;5117112;28;20074;-70
2020/12/08 06:13:31;;;;;;;22.80;11.68;;;1.90;99.90;;;;;;5117092;28;20407;-70
2020/12/08 06:16:01;;;;;;;25.75;12.32;;;2.00;99.90;;;;;;5117405;28;20023;-70
2020/12/08 06:18:39;;;;;;;21.90;11.52;;;2.00;99.90;;;;;;5117063;28;20441;-70
2020/12/08 06:21:24;;;;;;;23.98;11.63;;;2.00;99.90;;;;;;5098845;28;20107;-71
2020/12/08 06:23:54;;;;;;;20.15;10.52;;;2.00;99.90;;;;;;5098970;28;20023;-70
2020/12/08 06:26:36;;;;;;;25.45;10.35;;;2.00;99.90;;;;;;5117525;28;20076;-70
2020/12/08 06:29:09;;;;;;;24.55;10.88;;;2.00;99.90;;;;;;5117410;28;20027;-70
2020/12/08 06:31:44;;;;;;;20.70;9.88;;;2.00;99.90;;;;;;5116851;28;20026;-70
2020/12/08 06:34:20;;;;;;;19.02;10.13;;;1.90;99.90;;;;;;5116868;28;20020;-70
2020/12/08 06:36:47;;;;;;;;;;;2.00;99.90;;;;;;5117416;28;20020;-70
2020/12/08 06:39:15;;;;;;;19.88;10.18;;;1.90;99.90;;;;;;5117185;28;19968;-70
2020/12/08 06:41:44;;;;;;;26.30;11.20;;;1.90;99.90;;;;;;5117176;28;20042;-70
2020/12/08 06:44:22;;;;;;;24.65;10.95;;;1.90;99.90;;;;;;5082336;28;20337;-71
2020/12/08 06:46:54;;;;;;;21.15;10.55;;;1.90;99.90;;;;;;5117357;28;20301;-70
2020/12/08 06:49:22;;;;;;;26.40;13.23;;;1.90;99.90;;;;;;5116957;28;20085;-70
2020/12/08 06:51:57;;;;;;;24.15;12.52;;;2.00;99.90;;;;;;5119724;28;20016;-71
2020/12/08 06:54:25;;;;;;;28.83;14.18;;;2.00;99.90;;;;;;5120880;28;20024;-71
2020/12/08 06:57:02;;;;;;;27.38;14.38;;;2.00;99.90;;;;;;5120771;28;20024;-70
2020/12/08 06:59:30;;;;;;;25.58;12.57;;;2.00;99.90;;;;;;5120906;28;20068;-71
2020/12/08 07:01:58;;;;;;;23.17;12.57;;;2.00;99.90;;;;;;5121219;28;20400;-71
2020/12/08 07:04:29;;;;;;;24.55;12.63;;;2.00;99.90;;;;;;5120587;28;20419;-71
2020/12/08 07:07:00;;;;;;;26.63;11.50;;;2.10;99.90;;;;;;5120842;28;20023;-71
2020/12/08 07:09:37;;;;;;;22.80;11.93;;;2.10;99.90;;;;;;5120637;28;20054;-71
2020/12/08 07:12:05;;;;;;;22.75;11.73;;;2.10;99.90;;;;;;5120964;28;20403;-70
2020/12/08 07:14:36;;;;;;;24.85;11.95;;;2.10;99.90;;;;;;5120476;28;20023;-71
2020/12/08 07:17:05;;;;;;;27.25;12.65;;;2.10;99.90;;;;;;5120646;28;20015;-71
2020/12/08 07:19:32;;;;;;;22.48;10.75;;;2.10;99.90;;;;;;5120821;28;20024;-71
2020/12/08 07:22:01;;;;;;;19.80;10.82;;;2.10;99.90;;;;;;5120713;28;20030;-68
2020/12/08 07:24:30;;;;;;;22.13;11.38;;;2.10;99.90;;;;;;5120257;28;20069;-70
2020/12/08 07:27:01;;;;;;;21.90;11.48;;;2.10;99.90;;;;;;5120088;28;20102;-74
2020/12/08 07:29:28;;;;;;;26.70;12.30;;;2.10;99.90;;;;;;5120711;28;20020;-74
2020/12/08 07:31:56;;;;;;;21.17;11.63;;;2.10;99.90;;;;;;5120275;28;20389;-75
2020/12/08 07:34:23;;;;;;;19.20;10.27;;;2.20;99.90;;;;;;5120529;28;20020;-74
2020/12/08 07:36:51;;;;;;;24.60;11.93;;;2.10;99.90;;;;;;5120019;28;20087;-72
2020/12/08 07:39:22;;;;;;;19.75;10.40;;;2.10;99.90;;;;;;5101802;28;20020;-73
2020/12/08 07:41:49;;;;;;;20.73;11.43;;;2.10;99.90;;;;;;5120149;28;20065;-73
2020/12/08 07:44:18;;;;;;;22.27;10.90;;;2.20;99.90;;;;;;5120610;28;20106;-73
2020/12/08 07:46:53;;;;;;;21.88;11.18;;;2.10;99.90;;;;;;5120351;28;20020;-75
2020/12/08 07:49:22;;;;;;;19.30;10.52;;;2.10;99.90;;;;;;5120076;28;20028;-73
2020/12/08 07:51:50;;;;;;;22.25;10.82;;;2.20;99.90;;;;;;5119874;28;20416;-72
2020/12/08 07:54:19;;;;;;;17.92;9.85;;;2.20;99.90;;;;;;5102699;28;20058;-72
2020/12/08 07:56:46;;;;;;;20.67;11.10;;;2.20;99.90;;;;;;5120209;28;20068;-71
2020/12/08 07:59:13;;;;;;;26.38;11.25;;;2.20;99.90;;;;;;5101837;28;20292;-72
2020/12/08 08:01:44;;;;;;;21.55;11.57;;;2.20;99.90;;;;;;5119037;28;20019;-72
2020/12/08 08:04:12;;;;;;;22.95;12.18;;;2.20;99.90;;;;;;5119980;28;20124;-71
2020/12/08 08:06:41;;;;;;;25.35;12.73;;;2.30;99.90;;;;;;5119694;28;20054;-71
2020/12/08 08:09:08;;;;;;;24.75;13.10;;;2.30;99.90;;;;;;5119268;28;20043;-72
2020/12/08 08:11:36;;;;;;;24.27;11.93;;;2.30;99.90;;;;;;5119219;28;20103;-71
2020/12/08 08:14:07;;;;;;;20.95;11.43;;;2.30;99.90;;;;;;5119505;28;20047;-71
2020/12/08 08:16:35;;;;;;;21.20;11.13;;;2.40;99.90;;;;;;5119200;28;20027;-71
2020/12/08 08:19:03;;;;;;;26.63;12.93;;;2.40;99.90;;;;;;5119904;28;20434;-71
2020/12/08 08:21:32;;;;;;;21.33;11.38;;;2.40;99.90;;;;;;5119341;28;20031;-72
2020/12/08 08:24:00;;;;;;;20.70;10.98;;;2.40;99.90;;;;;;5119317;28;20026;-72
2020/12/08 08:26:28;;;;;;;20.58;10.43;;;2.40;99.90;;;;;;5119606;28;20024;-67
2020/12/08 08:28:56;;;;;;;22.55;11.65;;;2.50;99.90;;;;;;5119058;28;20104;-69
2020/12/08 08:31:23;;;;;;;19.85;10.38;;;2.50;99.90;;;;;;5118920;28;20350;-69
2020/12/08 08:33:51;;;;;;;21.52;11.13;;;2.50;99.90;;;;;;5119670;28;20358;-68
2020/12/08 08:36:19;;;;;;;21.60;11.05;;;2.60;99.90;;;;;;5118714;28;20020;-69
2020/12/08 08:38:47;;;;;;;21.13;11.73;;;2.60;99.90;;;;;;5118712;28;20020;-68
2020/12/08 08:41:15;;;;;;;19.98;10.75;;;2.60;99.90;;;;;;5119176;28;20020;-68
2020/12/08 08:43:43;;;;;;;22.73;11.32;;;2.70;99.90;;;;;;5118942;28;20028;-68
2020/12/08 08:46:12;;;;;;;20.48;11.75;;;2.70;99.90;;;;;;5118627;28;20030;-68
2020/12/08 08:48:40;;;;;;;19.60;10.43;;;2.80;99.90;;;;;;5118630;28;20406;-68
2020/12/08 08:51:07;;;;;;;22.20;11.30;;;2.80;99.90;;;;;;5118983;28;20407;-68
2020/12/08 08:53:36;;;;;;;19.65;11.38;;;2.80;99.90;;;;;;5119106;28;20103;-69
2020/12/08 08:56:05;;;;;;;22.30;12.02;;;2.90;99.90;;;;;;5119054;28;20038;-67
2020/12/08 08:58:32;;;;;;;21.83;11.88;;;2.90;99.90;;;;;;5118635;28;20413;-68
2020/12/08 09:01:00;;;;;;;21.27;11.52;;;3.00;99.90;;;;;;5118693;28;20023;-68
2020/12/08 09:03:28;;;;;;;22.00;11.50;;;3.00;99.90;;;;;;5118405;28;20443;-68
2020/12/08 09:05:56;;;;;;;25.63;12.10;;;3.10;99.90;;;;;;5118660;28;20019;-68
2020/12/08 09:08:24;;;;;;;22.58;12.20;;;3.10;99.90;;;;;;5118171;28;20043;-68
2020/12/08 09:10:52;;;;;;;25.00;12.65;;;3.10;99.90;;;;;;5118605;28;20016;-68
2020/12/08 09:13:19;;;;;;;26.23;14.05;;;3.20;99.90;;;;;;5118185;28;20430;-68
2020/12/08 09:15:47;;;;;;;25.05;13.95;;;3.20;99.90;;;;;;5100144;28;20069;-67
2020/12/08 09:18:14;;;;;;;26.52;13.93;;;3.20;99.90;;;;;;5100008;28;20020;-69
2020/12/08 09:20:42;;;;;;;23.20;12.82;;;3.30;99.90;;;;;;5118435;28;20047;-69
2020/12/08 09:23:10;;;;;;;23.08;12.65;;;3.30;99.90;;;;;;5100081;28;20372;-69
2020/12/08 09:25:38;;;;;;;24.98;13.20;;;3.30;99.90;;;;;;5118390;28;20288;-68
2020/12/08 09:28:06;;;;;;;23.30;12.43;;;3.30;99.90;;;;;;5118018;28;20094;-68
2020/12/08 09:30:34;;;;;;;19.63;11.18;;;3.40;99.90;;;;;;5117791;28;20019;-69
2020/12/08 09:33:02;;;;;;;21.67;11.32;;;3.50;99.90;;;;;;5099628;28;20028;-68
2020/12/08 09:35:30;;;;;;;21.13;11.98;;;3.40;99.90;;;;;;5117672;28;20099;-69
2020/12/08 09:37:58;;;;;;;23.58;12.98;;;3.50;99.90;;;;;;5117850;28;20043;-69
2020/12/08 09:40:25;;;;;;;21.73;12.75;;;3.50;99.90;;;;;;5118191;28;20050;-68
2020/12/08 09:42:54;;;;;;;22.20;12.90;;;3.50;99.90;;;;;;5117550;28;20028;-68
2020/12/08 09:45:22;;;;;;;22.25;12.18;;;3.60;99.90;;;;;;5118086;28;20408;-68
2020/12/08 09:47:50;;;;;;;23.42;12.15;;;3.60;99.90;;;;;;5117673;28;20023;-68
2020/12/08 09:50:19;;;;;;;22.50;13.55;;;3.60;99.90;;;;;;5117366;28;20358;-68
2020/12/08 09:52:46;;;;;;;23.35;12.10;;;3.60;99.90;;;;;;5117364;28;20078;-69
2020/12/08 09:55:15;;;;;;;22.50;10.93;;;3.70;99.90;;;;;;5099488;28;20435;-68
2020/12/08 09:57:42;;;;;;;18.73;9.85;;;3.70;99.90;;;;;;5117484;28;20419;-68
2020/12/08 10:00:11;;;;;;;18.42;10.05;;;3.70;99.90;;;;;;5099251;28;20016;-68
2020/12/08 10:02:40;;;;;;;17.63;10.18;;;3.80;99.90;;;;;;5117210;28;20442;-68
2020/12/08 10:05:08;;;;;;;15.98;9.27;;;3.80;99.90;;;;;;5117802;28;20101;-68
2020/12/08 10:07:35;;;;;;;15.40;9.52;;;3.80;99.90;;;;;;5098868;28;20081;-68
2020/12/08 10:10:03;;;;;;;19.10;9.90;;;3.90;99.90;;;;;;5117699;28;20043;-68
2020/12/08 10:12:30;;;;;;;18.30;9.55;;;3.90;99.90;;;;;;5099060;28;20327;-68
2020/12/08 10:14:57;;;;;;;18.58;9.15;;;4.00;99.90;;;;;;5099644;28;20054;-68
2020/12/08 10:17:25;;;;;;;15.68;9.48;;;4.00;99.90;;;;;;5117125;28;20019;-68
2020/12/08 10:19:52;;;;;;;19.23;11.00;;;4.10;99.90;;;;;;5117600;28;20030;-68
2020/12/08 10:22:20;;;;;;;19.63;11.30;;;4.10;99.90;;;;;;5099051;28;20028;-68
2020/12/08 10:24:48;;;;;;;22.75;10.25;;;4.20;99.90;;;;;;5098810;28;20050;-68
2020/12/08 10:27:15;;;;;;;21.27;10.15;;;4.20;99.90;;;;;;5116785;28;20028;-68
2020/12/08 10:29:43;;;;;;;16.55;9.48;;;4.20;99.90;;;;;;5117607;28;20042;-68
2020/12/08 10:32:12;;;;;;;17.80;9.68;;;4.20;99.90;;;;;;5117157;28;20111;-68
2020/12/08 10:34:41;;;;;;;18.13;9.60;;;4.20;99.90;;;;;;5098977;28;20035;-68
2020/12/08 10:37:09;;;;;;;13.95;8.35;;;4.30;99.90;;;;;;5116859;28;20024;-68
2020/12/08 10:39:37;;;;;;;14.82;8.98;;;4.30;99.90;;;;;;5098830;28;20324;-68
2020/12/08 10:42:04;;;;;;;17.50;9.10;;;4.30;99.90;;;;;;5117356;28;20030;-67
2020/12/08 10:44:32;;;;;;;19.73;10.07;;;4.40;99.90;;;;;;5116976;28;20028;-68
2020/12/08 10:47:00;;;;;;;16.95;9.75;;;4.50;99.90;;;;;;5098717;28;20327;-68
2020/12/08 10:49:28;;;;;;;18.15;10.13;;;4.60;99.90;;;;;;5117643;28;20392;-67
2020/12/08 10:51:56;;;;;;;17.15;9.90;;;4.80;99.90;;;;;;5116720;28;20420;-67
2020/12/08 10:54:24;;;;;;;18.05;10.07;;;4.90;99.90;;;;;;5117161;28;20435;-67
2020/12/08 10:56:53;;;;;;;17.20;9.38;;;5.10;99.90;;;;;;5117298;28;20149;-67
2020/12/08 10:59:20;;;;;;;17.60;8.93;;;5.30;99.90;;;;;;5116762;28;20365;-67
2020/12/08 11:01:48;;;;;;;14.32;8.13;;;5.50;99.90;;;;;;5116703;28;20027;-67
2020/12/08 11:04:17;;;;;;;13.02;8.18;;;5.70;99.90;;;;;;5117299;28;20405;-67
2020/12/08 11:06:45;;;;;;;14.73;8.27;;;5.90;99.90;;;;;;5118185;28;20026;-68
2020/12/08 11:09:13;;;;;;;15.20;8.85;;;6.00;99.90;;;;;;5116615;28;20067;-67
2020/12/08 11:11:41;;;;;;;13.90;8.52;;;6.10;99.90;;;;;;5098677;28;20031;-67
2020/12/08 11:14:08;;;;;;;14.77;8.15;;;6.20;99.90;;;;;;5117279;28;20392;-67
2020/12/08 11:16:36;;;;;;;13.10;7.80;;;6.30;99.90;;;;;;5116999;28;20404;-68
2020/12/08 11:19:04;;;;;;;13.25;8.15;;;6.30;99.90;;;;;;5116543;28;20012;-67
2020/12/08 11:21:31;;;;;;;12.75;8.20;;;6.40;99.90;;;;;;5116918;28;20023;-68
2020/12/08 11:23:59;;;;;;;15.93;8.88;;;6.30;99.90;;;;;;5116574;28;20031;-67
2020/12/08 11:26:28;;;;;;;14.45;8.27;;;6.30;99.90;;;;;;5116276;28;20077;-68
2020/12/08 11:28:57;;;;;;;14.40;7.95;;;6.30;99.90;;;;;;5116846;28;20020;-68
2020/12/08 11:31:24;;;;;;;15.25;8.52;;;6.20;99.90;;;;;;5098084;28;20027;-65
2020/12/08 11:33:52;;;;;;;13.55;8.13;;;6.20;99.90;;;;;;5116312;28;20054;-66
2020/12/08 11:36:19;;;;;;;15.18;9.10;;;6.10;99.90;;;;;;5116379;28;20365;-66
2020/12/08 11:38:47;;;;;;;14.85;8.32;;;6.00;99.90;;;;;;5119146;28;20093;-66
2020/12/08 11:41:15;;;;;;;14.63;8.75;;;5.90;99.90;;;;;;5119887;28;20015;-67
2020/12/08 11:43:44;;;;;;;16.80;9.10;;;5.80;99.90;;;;;;5101793;28;20077;-66
2020/12/08 11:46:12;;;;;;;14.95;8.77;;;5.70;99.90;;;;;;5119787;28;20030;-67
2020/12/08 11:48:41;;;;;;;15.95;8.82;;;5.70;99.90;;;;;;5120039;28;20026;-66
2020/12/08 11:51:09;;;;;;;15.35;8.30;;;5.60;99.90;;;;;;5120079;28;20093;-68
2020/12/08 11:53:38;;;;;;;13.70;9.02;;;5.60;99.90;;;;;;5120123;28;20442;-68
2020/12/08 11:56:06;;;;;;;15.98;9.20;;;5.60;99.90;;;;;;5120595;28;20385;-68
2020/12/08 11:58:34;;;;;;;14.77;8.93;;;5.60;99.90;;;;;;5101604;28;20103;-68
2020/12/08 12:01:02;;;;;;;14.77;8.70;;;5.70;99.90;;;;;;5119978;28;20189;-83
2020/12/08 13:57:47;;;;;;;15.40;8.10;;;4.90;99.90;;;;;;5808476;23;20054;-71
2020/12/08 14:00:15;;;;;;;13.40;8.23;;;4.80;99.90;;;;;;4976000;28;20377;-69
2020/12/08 14:02:42;;;;;;;23.92;11.43;;;4.80;99.90;;;;;;4978368;28;20019;-69
2020/12/08 14:05:10;;;;;;;30.30;12.55;;;4.80;99.90;;;;;;4978317;28;20054;-69
2020/12/08 14:07:38;;;;;;;22.33;10.63;;;4.70;99.90;;;;;;4977813;28;20019;-70
2020/12/08 14:10:06;;;;;;;29.08;11.95;;;4.70;99.90;;;;;;4978260;28;20019;-69
2020/12/08 14:12:36;;;;;;;19.40;9.55;;;4.70;99.90;;;;;;4977542;28;20106;-69
2020/12/08 14:15:04;;;;;;;18.67;9.77;;;4.60;99.90;;;;;;4978463;28;20019;-69
2020/12/08 14:17:31;;;;;;;24.25;12.43;;;4.60;99.90;;;;;;4977476;28;20026;-69
2020/12/08 14:19:59;;;;;;;18.20;9.05;;;4.50;99.90;;;;;;4992814;28;20053;-69
2020/12/08 14:22:27;;;;;;;14.60;8.55;;;4.50;99.90;;;;;;4977916;28;20362;-69
2020/12/08 14:24:57;;;;;;;13.15;7.80;;;4.40;99.90;;;;;;4978161;28;20027;-69
2020/12/08 14:27:25;;;;;;;14.23;7.85;;;4.30;99.90;;;;;;4977381;28;20031;-69
2020/12/08 14:29:52;;;;;;;12.35;7.50;;;4.20;99.90;;;;;;4978082;28;20026;-69
2020/12/08 14:32:20;;;;;;;17.80;9.00;;;4.10;99.90;;;;;;4978112;28;20438;-67
2020/12/08 14:34:48;;;;;;;14.00;7.93;;;4.10;99.90;;;;;;4977652;28;20082;-69
2020/12/08 14:37:16;;;;;;;17.98;8.75;;;4.00;99.90;;;;;;4978182;28;20026;-69
2020/12/08 14:39:44;;;;;;;15.20;7.97;;;3.90;99.90;;;;;;4993018;28;20022;-69
2020/12/08 14:42:16;;;;;;;16.08;7.82;;;3.80;99.90;;;;;;4977564;28;20061;-70
2020/12/08 14:44:43;;;;;;;14.43;7.60;;;3.80;99.90;;;;;;4992683;28;20035;-70
2020/12/08 14:47:10;;;;;;;13.63;7.97;;;3.70;99.90;;;;;;4977872;28;20031;-70